Latest Coastal Weather Observations for Nullarbor

IDS60701

Issued at 8:51 pm CST Friday 31 July 2015 (issued every 10 minutes, with the page automatically refreshed every 10 minutes)

About coastal observations | Map of coastal stations | Coastal observations for SA | Marine services | Other Formats
Station Details ID: 018106 Name: NULLARBOR Lat: -31.45 Lon: 130.90 Height: 64.0 m
Data from the previous 72 hours. | See also: Recent months at Nullarbor
Date/Time
CST
Temp

°C
Wind Pressure Rain
since 9am
mm
Weather Cloud Vis
km
Sea
Height
m
Swell
Dir
 
Speed
knots
Gust
knots
hPa Trend Height
m
Period
s
Dir
31/08:30pm 16.4 SSE 7 8 1014.7 - 0.2 - Partly cloudy 10 - - - -
31/08:00pm 16.7 SSE 6 8 1014.6 - 0.2 - - 10 - - - -
31/07:30pm 16.8 SSE 7 8 1014.4 - 0.2 - Partly cloudy 10 - - - -
31/07:00pm 17.0 SE 7 8 1014.3 - 0.2 - - 10 - - - -
31/06:30pm 17.4 SSE 8 9 1014.0 - 0.2 - - 10 - - - -
31/06:00pm 18.3 SSE 9 11 1013.8 - 0.2 - Cloudy 10 - - - -
31/05:30pm 19.3 SSE 9 12 1013.7 - 0.2 - - 10 - - - -
31/05:00pm 20.9 S 12 14 1013.6 - 0.2 - - 10 - - - -
31/04:30pm 24.9 NW 5 8 1013.7 - 0.2 - - 10 - - - -
31/04:00pm 24.4 W 7 10 1013.9 - 0.2 - - 10 - - - -
31/03:30pm 24.3 WNW 7 12 1013.9 - 0.2 - Partly cloudy 10 - - - -
31/03:00pm 24.4 WNW 6 9 1014.1 - 0.2 - Partly cloudy 10 - - - -
31/02:30pm 24.2 NW 6 12 1014.4 - 0.2 - Cloudy 10 - - - -
31/02:00pm 23.9 NNW 9 14 1015.0 - 0.2 - Partly cloudy 10 - - - -
31/01:30pm 22.9 N 9 12 1015.6 - 0.2 - Partly cloudy 10 - - - -
31/01:00pm 21.8 N 11 15 1016.6 - 0.2 - Partly cloudy 10 - - - -
31/12:30pm 20.8 N 12 17 1017.2 - 0.2 - Partly cloudy 10 - - - -
31/12:00pm 19.7 NNE 11 13 1017.9 - 0.2 - Cloudy 10 - - - -
31/11:30am 18.1 NNE 10 13 1018.6 - 0.2 - Partly cloudy 10 - - - -
31/11:00am 15.7 NNE 8 10 1019.8 - 0.2 - Partly cloudy 10 - - - -
31/10:30am 13.6 NNE 7 10 1020.3 - 0.2 - Partly cloudy 10 - - - -
31/10:00am 13.2 NNE 9 11 1020.4 - 0.0 - Partly cloudy 10 - - - -
31/09:30am 12.7 NNE 8 11 1020.8 - 0.0 - Partly cloudy 10 - - - -
31/09:00am 12.2 NNE 8 11 1020.6 - 0.0 - Cloudy 10 - - - -
31/08:30am 11.5 NNE 8 10 1020.3 - 0.0 - Partly cloudy 10 - - - -
31/08:00am 11.2 NE 10 12 1020.1 - 0.0 - Cloudy 10 - - - -
31/07:30am 10.6 NE 7 9 1020.1 - 0.0 - Partly cloudy 10 - - - -
31/07:27am 10.5 NE 7 9 1020.2 - 0.0 - Partly cloudy 10 - - - -
31/07:00am 9.7 NE 8 8 1020.2 - 0.0 - Partly cloudy 1 - - - -
31/06:30am 9.7 NE 5 6 1020.4 - 0.0 - - 0.5 - - - -
31/06:00am 9.9 ENE 5 6 1020.2 - 0.0 - Partly cloudy 1 - - - -
31/05:30am 10.4 CALM 0 0 1020.3 - 0.0 - Partly cloudy 2 - - - -
31/05:06am 11.3 NE 4 6 1020.5 - 0.0 - Partly cloudy 2 - - - -
31/05:00am 11.3 NE 5 6 1020.4 - 0.0 - Partly cloudy 1 - - - -
31/04:30am 11.3 NE 6 7 1020.5 - 0.0 - Cloudy 0.3 - - - -
31/04:16am 11.5 ENE 5 7 1020.5 - 0.0 - Partly cloudy 2 - - - -
31/04:11am 11.4 ENE 4 7 1020.7 - 0.0 - Partly cloudy 7 - - - -
31/04:00am 12.0 E 4 5 1020.9 - 0.0 - Partly cloudy 8 - - - -
31/03:53am 12.1 NNE 4 5 1021.0 - 0.0 - Partly cloudy 8 - - - -
31/03:30am 12.1 NNE 6 6 1021.3 - 0.0 - Partly cloudy 6 - - - -
31/03:00am 12.1 S 5 7 1022.1 - 0.0 - Mostly cloudy 4 - - - -
31/02:34am 11.8 SE 5 5 1022.1 - 0.0 - Partly cloudy 7 - - - -
31/02:30am 11.8 SE 5 5 1022.0 - 0.0 - Partly cloudy 8 - - - -
31/02:01am 12.0 SE 4 5 1022.2 - 0.0 - Cloudy 10 - - - -
31/02:00am 11.9 SE 4 5 1022.2 - 0.0 - Cloudy 10 - - - -
31/01:30am 11.8 SE 5 7 1022.5 - 0.0 - Cloudy 4 - - - -
31/01:00am 11.1 SE 5 5 1022.9 - 0.0 - Partly cloudy 0.8 - - - -
31/12:30am 11.8 S 4 5 1023.2 - 0.0 - Partly cloudy 1 - - - -
31/12:00am 12.0 S 5 5 1023.4 - 0.0 - Mostly cloudy 2 - - - -
 
Date/Time
CST
Temp

°C
Wind Pressure Rain
since 9am
mm
Weather Cloud Vis
km
Sea
Height
m
Swell
Dir
 
Speed
knots
Gust
knots
hPa Trend Height
m
Period
s
Dir
30/11:42pm 12.3 SSW 3 4 1023.7 - 0.0 - Partly cloudy 6 - - - -
30/11:30pm 12.5 SSW 3 5 1023.7 - 0.0 - Partly cloudy 10 - - - -
30/11:00pm 13.0 S 3 5 1024.0 - 0.0 - Cloudy 10 - - - -
30/10:30pm 13.0 SSW 5 6 1024.2 - 0.0 - Cloudy 10 - - - -
30/10:00pm 13.1 S 4 5 1024.2 - 0.0 - Cloudy 10 - - - -
30/09:30pm 13.3 S 5 6 1024.4 - 0.0 - Cloudy 10 - - - -
30/09:00pm 13.3 CALM 0 4 1024.5 - 0.0 - Cloudy 10 - - - -
30/08:30pm 13.1 CALM 0 0 1024.6 - 0.0 - Partly cloudy 10 - - - -
30/08:00pm 12.7 SW 1 4 1024.2 - 0.0 - Partly cloudy 10 - - - -
30/07:30pm 13.4 SSW 5 6 1023.8 - 0.0 - Partly cloudy 10 - - - -
30/07:00pm 14.3 SSW 6 7 1023.6 - 0.0 - Partly cloudy 10 - - - -
30/06:30pm 15.2 S 8 13 1023.0 - 0.0 - Partly cloudy 10 - - - -
30/06:00pm 15.5 SSW 9 12 1023.0 - 0.0 - Cloudy 10 - - - -
30/05:30pm 16.0 S 10 13 1022.3 - 0.0 - Partly cloudy 10 - - - -
30/05:00pm 16.5 SSW 10 13 1021.9 - 0.0 - Partly cloudy 10 - - - -
30/04:30pm 17.0 SSW 11 15 1022.1 - 0.0 - Partly cloudy 10 - - - -
30/04:00pm 17.6 SSW 11 14 1022.1 - 0.0 - Partly cloudy 10 - - - -
30/03:30pm 17.6 SSW 10 14 1021.9 - 0.0 - Cloudy 10 - - - -
30/03:00pm 17.7 SSW 11 15 1021.9 - 0.0 - Mostly cloudy 10 - - - -
30/02:30pm 17.9 SSW 12 16 1022.2 - 0.0 - Partly cloudy 10 - - - -
30/02:00pm 17.9 SSW 13 17 1022.2 - 0.0 - Partly cloudy 10 - - - -
30/01:30pm 18.3 SSW 15 19 1022.3 - 0.0 - Partly cloudy 10 - - - -
30/01:00pm 19.1 SSW 14 18 1022.8 - 0.0 - Partly cloudy 10 - - - -
30/12:30pm 18.7 SSW 13 18 1023.0 - 0.0 - Partly cloudy 10 - - - -
30/12:00pm 18.7 SW 11 17 1023.2 - 0.0 - Partly cloudy 10 - - - -
30/11:30am 18.8 SSW 10 13 1023.2 - 0.0 - Partly cloudy 10 - - - -
30/11:00am 17.9 SW 10 13 1023.3 - 0.0 - Partly cloudy 10 - - - -
30/10:30am 17.1 SSW 7 11 1022.8 - 0.0 - - 10 - - - -
30/10:00am 16.0 SW 6 8 1022.6 - 0.0 - - 10 - - - -
30/09:30am 14.2 WSW 5 7 1022.3 - 0.0 - - 10 - - - -
30/09:00am 12.8 W 4 5 1022.0 - 0.0 - - 10 - - - -
30/08:30am 11.6 W 5 6 1021.4 - 0.0 - Partly cloudy 10 - - - -
30/08:00am 11.0 W 7 8 1021.1 - 0.0 - Partly cloudy 10 - - - -
30/07:30am 10.9 WNW 5 6 1020.4 - 0.0 - Partly cloudy 10 - - - -
30/07:00am 11.1 WNW 4 5 1019.7 - 0.0 - Partly cloudy 10 - - - -
30/06:30am 11.0 NNW 5 5 1019.5 - 0.0 - - 10 - - - -
30/06:00am 12.2 WSW 7 7 1019.7 - 0.0 - Cloudy 10 - - - -
30/05:30am 12.0 W 6 7 1019.6 - 0.0 - Partly cloudy 10 - - - -
30/05:00am 12.6 WSW 6 7 1019.5 - 0.0 - - 10 - - - -
30/04:30am 12.9 WNW 5 6 1019.1 - 0.0 - Partly cloudy 10 - - - -
30/04:00am 13.9 WNW 6 7 1019.3 - 0.0 - Partly cloudy 10 - - - -
30/03:30am 13.7 NW 7 9 1019.5 - 0.0 - Partly cloudy 10 - - - -
30/03:00am 14.1 WNW 7 9 1019.5 - 0.0 - Mostly cloudy 10 - - - -
30/02:30am 14.1 W 9 11 1019.7 - 0.0 - Cloudy 10 - - - -
30/02:00am 15.0 WNW 9 12 1019.0 - 0.0 - Partly cloudy 10 - - - -
30/01:30am 15.1 N 11 14 1018.9 - 0.0 - Cloudy 10 - - - -
30/01:00am 14.6 N 11 13 1019.1 - 0.0 - Partly cloudy 10 - - - -
30/12:30am 14.6 N 11 12 1019.5 - 0.0 - - 10 - - - -
30/12:00am 15.4 N 13 15 1019.7 - 0.0 - Partly cloudy 10 - - - -
 
Date/Time
CST
Temp

°C
Wind Pressure Rain
since 9am
mm
Weather Cloud Vis
km
Sea
Height
m
Swell
Dir
 
Speed
knots
Gust
knots
hPa Trend Height
m
Period
s
Dir
29/11:30pm 16.1 N 12 15 1020.1 - 0.0 - Partly cloudy 10 - - - -
29/11:00pm 16.2 N 11 13 1020.2 - 0.0 - Partly cloudy 10 - - - -
29/10:30pm 16.9 N 10 13 1020.3 - 0.0 - Cloudy 10 - - - -
29/10:00pm 16.4 N 9 11 1020.5 - 0.0 - Cloudy 10 - - - -
29/09:30pm 16.8 N 9 11 1020.5 - 0.0 - Cloudy 10 - - - -
29/09:00pm 17.0 N 9 11 1020.4 - 0.0 - Mostly cloudy 10 - - - -
29/08:30pm 17.2 N 9 11 1020.4 - 0.0 - Partly cloudy 10 - - - -
29/08:00pm 18.1 N 11 15 1020.3 - 0.0 - Partly cloudy 10 - - - -
29/07:30pm 18.6 N 10 12 1020.1 - 0.0 - Partly cloudy 10 - - - -
29/07:00pm 19.4 N 11 14 1019.9 - 0.0 - Partly cloudy 10 - - - -
29/06:30pm 20.4 N 14 18 1019.5 - 0.0 - Partly cloudy 10 - - - -
29/06:00pm 20.6 N 13 17 1019.3 - 0.0 - - 10 - - - -
29/05:30pm 22.3 N 16 20 1019.3 - 0.0 - Partly cloudy 10 - - - -
29/05:00pm 23.4 N 18 23 1019.3 - 0.0 - Cloudy 10 - - - -
29/04:30pm 22.7 N 17 22 1019.6 - 0.0 - Cloudy 10 - - - -
29/04:00pm 23.6 N 17 24 1019.4 - 0.0 - Partly cloudy 10 - - - -
29/03:30pm 23.7 N 18 23 1019.6 - 0.0 - - 10 - - - -
29/03:00pm 23.1 N 17 23 1019.6 - 0.0 - - 10 - - - -
29/02:30pm 22.8 N 17 23 1020.2 - 0.0 - Partly cloudy 10 - - - -
29/02:00pm 22.1 N 18 23 1020.8 - 0.0 - Partly cloudy 10 - - - -
29/01:30pm 20.7 N 18 23 1021.5 - 0.0 - Partly cloudy 10 - - - -
29/01:00pm 20.5 N 17 22 1022.2 - 0.0 - Partly cloudy 10 - - - -
29/12:30pm 19.4 N 18 25 1022.9 - 0.0 - Partly cloudy 10 - - - -
29/12:00pm 17.3 N 19 24 1023.5 - 0.0 - Cloudy 10 - - - -
29/11:30am 17.4 N 20 27 1023.9 - 0.0 - Partly cloudy 10 - - - -
29/11:00am 15.4 N 20 25 1024.2 - 0.0 - Cloudy 10 - - - -
29/10:30am 14.6 N 21 26 1024.6 - 0.0 - Cloudy 10 - - - -
29/10:00am 13.9 N 17 22 1025.3 - 0.0 - Cloudy 10 - - - -
29/09:30am 13.0 N 14 18 1025.4 - 0.0 - Cloudy 10 - - - -
29/09:00am 12.3 N 13 16 1025.8 - 0.0 - Cloudy 10 - - - -
29/08:30am 11.8 N 13 17 1025.8 - 0.0 - Partly cloudy 10 - - - -
29/08:00am 11.8 N 14 18 1025.8 - 0.0 - Cloudy 10 - - - -
29/07:30am 11.9 N 15 20 1025.4 - 0.0 - Partly cloudy 10 - - - -
29/07:00am 11.8 NNE 16 22 1024.5 - 0.0 - Cloudy 10 - - - -
29/06:30am 11.5 NNE 14 19 1024.6 - 0.0 - - 10 - - - -
29/06:00am 11.2 NNE 13 17 1025.0 - 0.0 - Cloudy 10 - - - -
29/05:30am 10.9 NNE 14 18 1024.8 - 0.0 - Partly cloudy 10 - - - -
29/05:00am 10.9 NNE 15 19 1025.0 - 0.0 - - 10 - - - -
29/04:30am 10.8 NNE 15 20 1025.2 - 0.0 - - 10 - - - -
29/04:00am 10.2 NNE 14 18 1025.1 - 0.0 - - 10 - - - -
29/03:30am 10.2 NNE 13 15 1026.2 - 0.0 - - 10 - - - -
29/03:00am 9.9 NNE 12 14 1026.7 - 0.0 - Cloudy 10 - - - -
29/02:30am 9.7 NNE 9 12 1027.0 - 0.0 - - 10 - - - -
29/02:00am 10.5 NNE 13 16 1026.4 - 0.0 - - 10 - - - -
29/01:30am 10.8 NNE 13 17 1026.7 - 0.0 - - 10 - - - -
29/01:00am 11.2 NE 14 18 1026.3 - 0.0 - - 10 - - - -
29/12:30am 11.2 NE 13 17 1026.8 - 0.0 - - 10 - - - -
29/12:00am 10.8 NE 13 16 1027.1 - 0.0 - Cloudy 10 - - - -
 
Date/Time
CST
Temp

°C
Wind Pressure Rain
since 9am
mm
Weather Cloud Vis
km
Sea
Height
m
Swell
Dir
 
Speed
knots
Gust
knots
hPa Trend Height
m
Period
s
Dir
28/11:30pm 10.8 NE 10 13 1027.9 - 0.0 - - 10 - - - -
28/11:00pm 11.1 NE 9 11 1028.2 - 0.0 - - 10 - - - -
28/10:30pm 11.4 NNE 9 11 1028.2 - 0.0 - - 10 - - - -
28/10:00pm 11.6 NE 11 15 1027.9 - 0.0 - - 10 - - - -
28/09:30pm 10.8 NE 10 13 1028.0 - 0.0 - - 10 - - - -
28/09:00pm 10.7 NE 9 11 1028.5 - 0.0 - Cloudy 10 - - - -

Other Formats:

Comma delimited format used in spreadsheet applications
http://www.bom.gov.au/fwo/IDS60701/IDS60701.94651.axf

JavaScript Object Notation format (JSON) in row-major order
http://www.bom.gov.au/fwo/IDS60701/IDS60701.94651.json